createdAt,value
2018-06-30T00:00:23.487Z,14.97
2018-06-30T00:02:52.885Z,14.83
2018-06-30T00:05:22.274Z,14.72
2018-06-30T00:07:51.647Z,14.72
2018-06-30T00:10:29.084Z,14.61
2018-06-30T00:12:59.459Z,14.76
2018-06-30T00:15:28.935Z,14.75
2018-06-30T00:17:58.376Z,14.75
2018-06-30T00:20:27.693Z,14.51
2018-06-30T00:22:56.779Z,14.43
2018-06-30T00:25:26.067Z,14.37
2018-06-30T00:27:56.816Z,14.36
2018-06-30T00:30:26.561Z,14.33
2018-06-30T00:32:56.546Z,14.22
2018-06-30T00:35:25.613Z,14.25
2018-06-30T00:37:54.916Z,14.27
2018-06-30T00:40:24.243Z,14.40
2018-06-30T00:42:53.568Z,14.35
2018-06-30T00:45:22.877Z,14.15
2018-06-30T00:47:52.209Z,14.22
2018-06-30T00:50:21.517Z,14.09
2018-06-30T00:52:50.826Z,13.96
2018-06-30T00:55:20.139Z,13.86
2018-06-30T00:57:49.211Z,13.95
2018-06-30T01:00:18.528Z,13.94
2018-06-30T01:02:47.596Z,13.96
2018-06-30T01:05:16.914Z,13.83
2018-06-30T01:07:46.217Z,13.66
2018-06-30T01:10:15.530Z,13.73
2018-06-30T01:12:44.862Z,13.64
2018-06-30T01:15:14.159Z,13.67
2018-06-30T01:17:43.580Z,13.64
2018-06-30T01:20:12.888Z,13.69
2018-06-30T01:22:42.176Z,13.81
2018-06-30T01:25:11.488Z,13.19
2018-06-30T01:27:40.799Z,13.93
2018-06-30T01:30:11.484Z,14.06
2018-06-30T01:32:41.472Z,14.01
2018-06-30T01:35:11.201Z,13.87
2018-06-30T01:37:40.996Z,14.05
2018-06-30T01:40:10.064Z,13.81
2018-06-30T01:42:39.404Z,13.80
2018-06-30T01:45:08.620Z,13.76
2018-06-30T01:47:37.964Z,13.66
2018-06-30T01:50:07.276Z,13.67
2018-06-30T01:52:36.589Z,13.59
2018-06-30T01:55:05.679Z,13.53
2018-06-30T01:57:34.748Z,13.46
2018-06-30T02:00:04.533Z,12.64
2018-06-30T02:02:33.836Z,13.24
2018-06-30T02:05:03.164Z,13.21
2018-06-30T02:07:32.467Z,13.06
2018-06-30T02:10:01.800Z,13.03
2018-06-30T02:12:30.892Z,13.07
2018-06-30T02:14:59.962Z,13.10
2018-06-30T02:17:29.286Z,13.14
2018-06-30T02:19:58.623Z,13.19
2018-06-30T02:22:27.956Z,13.25
2018-06-30T02:24:57.268Z,13.42
2018-06-30T02:27:26.585Z,13.30
2018-06-30T02:29:55.897Z,13.60
2018-06-30T02:32:25.210Z,13.67
2018-06-30T02:34:54.521Z,13.47
2018-06-30T02:37:23.844Z,13.26
2018-06-30T02:39:53.160Z,13.05
2018-06-30T02:42:22.485Z,12.91
2018-06-30T02:44:51.817Z,12.75
2018-06-30T02:47:21.150Z,12.67
2018-06-30T02:49:50.555Z,12.62
2018-06-30T02:52:19.895Z,12.64
2018-06-30T02:54:49.009Z,12.60
2018-06-30T02:57:18.365Z,12.60
2018-06-30T02:59:47.724Z,12.28
2018-06-30T03:02:17.072Z,12.57
2018-06-30T03:04:46.478Z,12.95
2018-06-30T03:07:15.826Z,12.40
2018-06-30T03:09:45.187Z,12.45
2018-06-30T03:12:14.289Z,12.54
2018-06-30T03:14:43.394Z,12.59
2018-06-30T03:17:12.750Z,12.77
2018-06-30T03:19:42.114Z,12.90
2018-06-30T03:22:11.466Z,13.05
2018-06-30T03:24:40.823Z,12.92
2018-06-30T03:27:10.151Z,12.83
2018-06-30T03:29:39.502Z,12.77
2018-06-30T03:32:08.833Z,12.77
2018-06-30T03:34:38.191Z,12.74
2018-06-30T03:37:07.549Z,12.67
2018-06-30T03:39:36.911Z,12.54
2018-06-30T03:42:06.253Z,12.45
2018-06-30T03:44:35.624Z,12.31
2018-06-30T03:47:04.981Z,12.40
2018-06-30T03:49:34.355Z,12.28
2018-06-30T03:52:03.713Z,12.34
2018-06-30T03:54:33.085Z,12.34
2018-06-30T03:57:02.438Z,12.23
2018-06-30T03:59:31.785Z,12.37
2018-06-30T04:02:01.145Z,12.14
2018-06-30T04:04:30.482Z,12.44
2018-06-30T04:06:59.810Z,12.39
2018-06-30T04:09:28.891Z,12.41
2018-06-30T04:11:58.001Z,12.39
2018-06-30T04:14:27.344Z,12.48
2018-06-30T04:16:56.691Z,12.50
2018-06-30T04:19:26.065Z,12.57
2018-06-30T04:21:55.435Z,12.60
2018-06-30T04:24:24.802Z,12.64
2018-06-30T04:26:53.887Z,12.76
2018-06-30T04:29:22.980Z,12.46
2018-06-30T04:31:52.080Z,12.79
2018-06-30T04:34:21.173Z,12.74
2018-06-30T04:36:50.259Z,12.77
2018-06-30T04:39:19.620Z,12.83
2018-06-30T04:41:48.991Z,13.56
2018-06-30T04:44:18.339Z,13.14
2018-06-30T04:46:47.713Z,13.13
2018-06-30T04:49:17.053Z,13.23
2018-06-30T04:51:46.405Z,13.33
2018-06-30T04:54:15.777Z,13.44
2018-06-30T04:56:44.865Z,13.49
2018-06-30T04:59:14.204Z,13.64
2018-06-30T05:01:43.550Z,13.73
2018-06-30T05:04:12.892Z,13.82
2018-06-30T05:06:42.233Z,13.86
2018-06-30T05:09:11.569Z,14.00
2018-06-30T05:11:40.672Z,14.03
2018-06-30T05:14:09.777Z,14.19
2018-06-30T05:16:38.855Z,14.37
2018-06-30T05:19:07.944Z,14.54
2018-06-30T05:21:37.356Z,14.65
2018-06-30T05:24:06.455Z,14.74
2018-06-30T05:26:35.805Z,14.88
2018-06-30T05:29:05.197Z,14.97
2018-06-30T05:31:34.545Z,15.05
2018-06-30T05:34:03.932Z,14.90
2018-06-30T05:36:33.282Z,15.25
2018-06-30T05:39:02.633Z,15.38
2018-06-30T05:41:31.980Z,15.36
2018-06-30T05:44:01.340Z,15.52
2018-06-30T05:46:30.692Z,15.62
2018-06-30T05:49:00.038Z,15.79
2018-06-30T05:51:29.384Z,15.86
2018-06-30T05:53:58.721Z,15.93
2018-06-30T05:56:28.076Z,16.17
2018-06-30T05:58:57.152Z,16.21
2018-06-30T06:01:26.505Z,16.24
2018-06-30T06:03:55.850Z,16.40
2018-06-30T06:06:25.181Z,16.52
2018-06-30T06:08:54.522Z,16.63
2018-06-30T06:11:23.870Z,16.66
2018-06-30T06:13:53.497Z,16.78
2018-06-30T06:16:22.853Z,16.94
2018-06-30T06:18:52.212Z,17.01
2018-06-30T06:21:21.553Z,17.22
2018-06-30T06:23:50.884Z,17.95
2018-06-30T06:26:19.974Z,17.53
2018-06-30T06:28:49.073Z,17.71
2018-06-30T06:31:18.416Z,17.88
2018-06-30T06:33:47.755Z,17.98
2018-06-30T06:36:17.159Z,18.63
2018-06-30T06:38:46.502Z,18.09
2018-06-30T06:41:15.859Z,18.12
2018-06-30T06:43:45.196Z,18.14
2018-06-30T06:46:14.516Z,18.38
2018-06-30T06:48:44.097Z,18.41
2018-06-30T06:51:13.436Z,18.51
2018-06-30T06:53:42.776Z,18.57
2018-06-30T06:56:11.864Z,18.42
2018-06-30T06:58:41.225Z,18.66
2018-06-30T07:01:10.560Z,18.76
2018-06-30T07:03:39.914Z,18.87
2018-06-30T07:06:09.272Z,19.00
2018-06-30T07:08:38.624Z,19.18
2018-06-30T07:11:07.965Z,19.21
2018-06-30T07:13:37.301Z,19.30
2018-06-30T07:16:06.700Z,19.44
2018-06-30T07:18:36.083Z,19.46
2018-06-30T07:21:05.168Z,19.13
2018-06-30T07:23:34.513Z,20.12
2018-06-30T07:26:03.877Z,19.63
2018-06-30T07:28:32.967Z,19.66
2018-06-30T07:31:02.200Z,19.86
2018-06-30T07:33:31.404Z,19.93
2018-06-30T07:36:00.774Z,20.09
2018-06-30T07:38:29.885Z,20.17
2018-06-30T07:40:59.220Z,20.24
2018-06-30T07:43:28.577Z,20.28
2018-06-30T07:45:57.661Z,20.37
2018-06-30T07:48:27.005Z,20.45
2018-06-30T07:50:56.349Z,20.50
2018-06-30T07:53:25.699Z,20.50
2018-06-30T07:55:55.054Z,20.58
2018-06-30T07:58:24.411Z,20.54
2018-06-30T08:00:53.752Z,20.74
2018-06-30T08:03:23.097Z,20.84
2018-06-30T08:05:52.478Z,20.99
2018-06-30T08:08:21.584Z,21.05
2018-06-30T08:10:50.930Z,21.21
2018-06-30T08:13:20.291Z,21.34
2018-06-30T08:15:49.664Z,21.38
2018-06-30T08:18:19.021Z,20.89
2018-06-30T08:20:48.374Z,21.59
2018-06-30T08:23:17.722Z,21.67
2018-06-30T08:25:47.090Z,21.79
2018-06-30T08:28:16.430Z,21.75
2018-06-30T08:30:45.802Z,21.81
2018-06-30T08:33:15.168Z,21.85
2018-06-30T08:35:44.540Z,21.94
2018-06-30T08:38:13.912Z,22.04
2018-06-30T08:40:43.273Z,22.17
2018-06-30T08:43:12.597Z,22.15
2018-06-30T08:45:41.939Z,22.29
2018-06-30T08:48:11.281Z,22.31
2018-06-30T08:50:40.617Z,22.31
2018-06-30T08:53:09.969Z,22.50
2018-06-30T08:55:39.393Z,22.52
2018-06-30T08:58:09.314Z,22.51
2018-06-30T09:00:38.439Z,22.66
2018-06-30T09:03:07.772Z,22.73
2018-06-30T09:05:37.124Z,22.74
2018-06-30T09:08:06.477Z,22.83
2018-06-30T09:10:35.869Z,22.82
2018-06-30T09:13:05.183Z,22.94
2018-06-30T09:15:34.531Z,22.97
2018-06-30T09:18:03.868Z,22.93
2018-06-30T09:20:33.223Z,22.95
2018-06-30T09:23:02.593Z,23.09
2018-06-30T09:25:31.946Z,22.94
2018-06-30T09:28:01.288Z,23.35
2018-06-30T09:30:30.653Z,23.41
2018-06-30T09:32:59.995Z,23.47
2018-06-30T09:35:29.342Z,23.59
2018-06-30T09:37:58.701Z,23.69
2018-06-30T09:40:28.082Z,23.65
2018-06-30T09:42:57.418Z,23.75
2018-06-30T09:45:26.517Z,23.83
2018-06-30T09:47:55.608Z,23.83
2018-06-30T09:50:24.970Z,23.77
2018-06-30T09:52:54.348Z,23.80
2018-06-30T09:55:23.696Z,23.67
2018-06-30T09:57:53.046Z,23.91
2018-06-30T10:00:27.687Z,23.71
2018-06-30T10:02:57.022Z,23.81
2018-06-30T10:05:26.377Z,23.83
2018-06-30T10:07:55.762Z,24.08
2018-06-30T10:10:25.142Z,24.08
2018-06-30T10:12:54.246Z,23.44
2018-06-30T10:15:23.344Z,24.38
2018-06-30T10:17:52.709Z,24.44
2018-06-30T10:20:22.056Z,24.41
2018-06-30T10:22:51.414Z,24.28
2018-06-30T10:25:20.822Z,24.30
2018-06-30T10:27:50.296Z,24.55
2018-06-30T10:30:19.645Z,24.57
2018-06-30T10:32:48.739Z,24.54
2018-06-30T10:35:18.073Z,24.56
2018-06-30T10:37:47.429Z,24.65
2018-06-30T10:40:16.534Z,24.79
2018-06-30T10:42:45.635Z,24.93
2018-06-30T10:45:14.724Z,25.09
2018-06-30T10:47:44.077Z,25.20
2018-06-30T10:50:13.425Z,25.23
2018-06-30T10:52:42.524Z,25.37
2018-06-30T10:55:11.917Z,25.19
2018-06-30T10:57:41.039Z,25.13
2018-06-30T11:00:10.657Z,25.17
2018-06-30T11:02:40.153Z,25.20
2018-06-30T11:05:11.085Z,25.38
2018-06-30T11:07:40.493Z,25.25
2018-06-30T11:10:10.384Z,25.24
2018-06-30T11:12:39.580Z,25.29
2018-06-30T11:15:08.927Z,25.34
2018-06-30T11:17:38.322Z,25.61
2018-06-30T11:20:08.874Z,25.78
2018-06-30T11:22:38.217Z,25.93
2018-06-30T11:25:07.539Z,25.95
2018-06-30T11:27:36.933Z,25.85
2018-06-30T11:30:06.528Z,25.98
2018-06-30T11:32:36.022Z,26.14
2018-06-30T11:35:05.463Z,26.32
2018-06-30T11:37:34.833Z,26.21
2018-06-30T11:40:03.926Z,26.11
2018-06-30T11:42:33.285Z,26.06
2018-06-30T11:45:02.625Z,25.98
2018-06-30T11:47:31.712Z,26.02
2018-06-30T11:50:01.061Z,26.09
2018-06-30T11:52:30.417Z,26.02
2018-06-30T11:54:59.777Z,26.74
2018-06-30T11:57:29.125Z,26.37
2018-06-30T11:59:58.483Z,26.52
2018-06-30T12:02:27.842Z,26.36
2018-06-30T12:04:57.186Z,26.25
2018-06-30T12:07:26.540Z,26.24
2018-06-30T12:09:56.212Z,26.26
2018-06-30T12:12:25.561Z,26.40
2018-06-30T12:14:54.925Z,26.72
2018-06-30T12:17:24.288Z,26.52
2018-06-30T12:19:53.685Z,26.61
2018-06-30T12:22:23.020Z,26.49
2018-06-30T12:24:52.373Z,26.60
2018-06-30T12:27:21.711Z,26.69
2018-06-30T12:29:51.059Z,26.76
2018-06-30T12:32:20.485Z,26.66
2018-06-30T12:34:49.776Z,26.42
2018-06-30T12:37:19.113Z,26.78
2018-06-30T12:39:48.472Z,27.10
2018-06-30T12:42:17.808Z,27.22
2018-06-30T12:44:47.157Z,27.21
2018-06-30T12:47:16.271Z,27.07
2018-06-30T12:49:45.670Z,27.32
2018-06-30T12:52:14.973Z,27.58
2018-06-30T12:54:44.406Z,27.62
2018-06-30T12:57:13.683Z,27.33
2018-06-30T12:59:43.031Z,27.29
2018-06-30T13:02:12.509Z,27.19
2018-06-30T13:04:41.841Z,27.27
2018-06-30T13:07:11.180Z,26.90
2018-06-30T13:09:40.515Z,26.99
2018-06-30T13:12:09.846Z,27.04
2018-06-30T13:14:39.220Z,27.02
2018-06-30T13:17:08.577Z,27.52
2018-06-30T13:19:37.979Z,27.71
2018-06-30T13:22:07.425Z,27.91
2018-06-30T13:24:36.764Z,27.87
2018-06-30T13:27:05.868Z,27.78
2018-06-30T13:29:35.017Z,27.72
2018-06-30T13:32:04.367Z,28.03
2018-06-30T13:34:33.802Z,28.02
2018-06-30T13:37:03.066Z,28.20
2018-06-30T13:39:32.183Z,28.42
2018-06-30T13:42:01.524Z,28.40
2018-06-30T13:44:30.860Z,28.09
2018-06-30T13:46:59.968Z,27.57
2018-06-30T13:49:29.321Z,27.43
2018-06-30T13:51:58.681Z,27.35
2018-06-30T13:54:28.031Z,27.55
2018-06-30T13:56:57.425Z,28.05
2018-06-30T13:59:26.768Z,28.13
2018-06-30T14:01:56.119Z,28.20
2018-06-30T14:04:25.458Z,28.23
2018-06-30T14:06:54.841Z,29.17
2018-06-30T14:09:24.216Z,28.95
2018-06-30T14:11:53.568Z,29.23
2018-06-30T14:14:22.904Z,29.77
2018-06-30T14:16:52.295Z,29.18
2018-06-30T14:19:21.702Z,29.68
2018-06-30T14:21:51.053Z,30.25
2018-06-30T14:24:20.412Z,29.45
2018-06-30T14:26:49.777Z,30.75
2018-06-30T14:29:18.856Z,31.12
2018-06-30T14:31:48.213Z,31.19
2018-06-30T14:34:17.565Z,31.37
2018-06-30T14:36:46.956Z,31.62
2018-06-30T14:39:16.316Z,31.83
2018-06-30T14:41:45.705Z,31.75
2018-06-30T14:44:15.034Z,31.79
2018-06-30T14:46:44.387Z,31.45
2018-06-30T14:49:13.474Z,31.29
2018-06-30T14:51:42.586Z,30.65
2018-06-30T14:54:11.948Z,31.65
2018-06-30T14:56:41.321Z,31.89
2018-06-30T14:59:10.665Z,31.85
2018-06-30T15:01:40.023Z,30.76
2018-06-30T15:04:09.381Z,32.24
2018-06-30T15:06:38.574Z,32.30
2018-06-30T15:09:10.885Z,32.26
2018-06-30T15:11:40.467Z,32.29
2018-06-30T15:14:09.817Z,32.24
2018-06-30T15:16:39.377Z,32.26
2018-06-30T15:19:09.287Z,32.26
2018-06-30T15:21:38.653Z,32.34
2018-06-30T15:24:09.622Z,31.76
2018-06-30T15:26:38.992Z,31.63
2018-06-30T15:29:08.349Z,31.69
2018-06-30T15:31:37.723Z,31.74
2018-06-30T15:34:07.088Z,31.94
2018-06-30T15:36:36.521Z,31.71
2018-06-30T15:39:07.961Z,31.87
2018-06-30T15:41:37.064Z,31.90
2018-06-30T15:44:06.395Z,31.67
2018-06-30T15:46:35.765Z,31.76
2018-06-30T15:49:05.045Z,31.80
2018-06-30T15:51:34.383Z,31.10
2018-06-30T15:54:03.871Z,30.63
2018-06-30T15:56:33.217Z,30.37
2018-06-30T15:59:02.586Z,30.03
2018-06-30T16:01:31.934Z,30.01
2018-06-30T16:04:01.285Z,29.77
2018-06-30T16:06:31.092Z,29.49
2018-06-30T16:09:00.463Z,29.34
2018-06-30T16:11:29.788Z,29.08
2018-06-30T16:13:58.896Z,28.48
2018-06-30T16:16:28.268Z,28.09
2018-06-30T16:18:57.622Z,28.19
2018-06-30T16:21:26.965Z,27.90
2018-06-30T16:23:56.444Z,27.96
2018-06-30T16:26:25.796Z,27.76
2018-06-30T16:28:55.301Z,28.11
2018-06-30T16:31:24.612Z,27.42
2018-06-30T16:33:53.703Z,27.37
2018-06-30T16:36:23.164Z,27.39
2018-06-30T16:38:52.509Z,27.35
2018-06-30T16:41:21.838Z,27.31
2018-06-30T16:43:51.249Z,27.41
2018-06-30T16:46:20.582Z,27.48
2018-06-30T16:48:49.924Z,27.27
2018-06-30T16:51:19.277Z,27.21
2018-06-30T16:53:48.636Z,27.04
2018-06-30T16:56:18.024Z,26.92
2018-06-30T16:58:47.465Z,26.80
2018-06-30T17:01:16.733Z,26.56
2018-06-30T17:03:46.108Z,26.69
2018-06-30T17:06:15.460Z,26.43
2018-06-30T17:08:44.798Z,26.53
2018-06-30T17:11:14.128Z,26.36
2018-06-30T17:13:43.464Z,26.45
2018-06-30T17:16:12.806Z,26.51
2018-06-30T17:18:42.155Z,25.80
2018-06-30T17:21:11.545Z,26.58
2018-06-30T17:23:40.900Z,26.57
2018-06-30T17:26:11.100Z,26.50
2018-06-30T17:28:40.480Z,26.39
2018-06-30T17:31:09.817Z,26.29
2018-06-30T17:33:39.162Z,26.22
2018-06-30T17:36:09.520Z,26.23
2018-06-30T17:38:38.841Z,26.09
2018-06-30T17:41:08.197Z,25.93
2018-06-30T17:43:37.533Z,25.86
2018-06-30T17:46:07.227Z,25.76
2018-06-30T17:48:36.580Z,25.64
2018-06-30T17:51:06.041Z,25.57
2018-06-30T17:53:35.408Z,25.53
2018-06-30T17:56:04.915Z,25.38
2018-06-30T17:58:34.260Z,25.20
2018-06-30T18:01:03.604Z,25.13
2018-06-30T18:03:33.054Z,25.12
2018-06-30T18:06:02.389Z,25.09
2018-06-30T18:08:31.724Z,25.03
2018-06-30T18:11:01.055Z,25.12
2018-06-30T18:13:30.384Z,25.07
2018-06-30T18:15:59.521Z,24.89
2018-06-30T18:18:28.824Z,24.88
2018-06-30T18:20:58.169Z,24.89
2018-06-30T18:23:27.483Z,24.74
2018-06-30T18:25:56.567Z,24.67
2018-06-30T18:28:25.962Z,24.63
2018-06-30T18:30:55.306Z,24.64
2018-06-30T18:33:24.623Z,24.53
2018-06-30T18:35:53.962Z,24.12
2018-06-30T18:38:23.283Z,23.94
2018-06-30T18:40:52.378Z,23.83
2018-06-30T18:43:21.781Z,23.70
2018-06-30T18:45:50.877Z,23.66
2018-06-30T18:48:20.198Z,23.40
2018-06-30T18:50:49.616Z,23.21
2018-06-30T18:53:18.944Z,23.05
2018-06-30T18:55:48.284Z,23.09
2018-06-30T18:58:17.399Z,22.87
2018-06-30T19:00:46.714Z,22.86
2018-06-30T19:03:16.127Z,22.80
2018-06-30T19:05:45.385Z,22.48
2018-06-30T19:08:14.459Z,22.29
2018-06-30T19:10:43.863Z,21.97
2018-06-30T19:13:13.193Z,22.50
2018-06-30T19:15:42.519Z,21.81
2018-06-30T19:18:11.869Z,21.70
2018-06-30T19:20:41.224Z,20.18
2018-06-30T19:23:10.583Z,21.39
2018-06-30T19:25:39.656Z,21.25
2018-06-30T19:28:08.978Z,20.95
2018-06-30T19:30:38.076Z,21.64
2018-06-30T19:33:07.430Z,20.96
2018-06-30T19:35:36.759Z,20.78
2018-06-30T19:38:06.090Z,20.62
2018-06-30T19:40:35.416Z,20.71
2018-06-30T19:43:04.748Z,20.69
2018-06-30T19:45:34.076Z,20.61
2018-06-30T19:48:03.159Z,20.62
2018-06-30T19:50:32.501Z,20.57
2018-06-30T19:53:01.906Z,20.47
2018-06-30T19:55:31.188Z,20.25
2018-06-30T19:58:00.251Z,20.86
2018-06-30T20:00:29.574Z,20.91
2018-06-30T20:02:58.899Z,20.29
2018-06-30T20:05:28.243Z,20.28
2018-06-30T20:07:57.565Z,20.16
2018-06-30T20:10:26.905Z,20.08
2018-06-30T20:12:56.248Z,20.00
2018-06-30T20:15:25.568Z,19.94
2018-06-30T20:17:57.599Z,19.97
2018-06-30T20:20:26.937Z,19.96
2018-06-30T20:22:56.508Z,19.97
2018-06-30T20:25:25.613Z,19.93
2018-06-30T20:27:54.944Z,19.92
2018-06-30T20:30:24.282Z,19.76
2018-06-30T20:32:53.606Z,19.87
2018-06-30T20:35:22.935Z,19.05
2018-06-30T20:37:52.021Z,19.30
2018-06-30T20:40:21.349Z,19.48
2018-06-30T20:42:50.711Z,19.53
2018-06-30T20:45:20.102Z,19.48
2018-06-30T20:47:49.481Z,19.46
2018-06-30T20:50:18.697Z,19.28
2018-06-30T20:52:48.029Z,19.34
2018-06-30T20:55:17.349Z,19.08
2018-06-30T20:57:46.680Z,19.13
2018-06-30T21:00:16.005Z,18.91
2018-06-30T21:02:45.335Z,18.91
2018-06-30T21:05:14.684Z,18.89
2018-06-30T21:07:44.017Z,18.87
2018-06-30T21:10:13.340Z,18.84
2018-06-30T21:12:42.420Z,19.26
2018-06-30T21:15:11.728Z,18.65
2018-06-30T21:17:40.970Z,18.71
2018-06-30T21:20:10.252Z,18.63
2018-06-30T21:22:39.597Z,18.73
2018-06-30T21:25:08.912Z,18.59
2018-06-30T21:27:38.237Z,18.56
2018-06-30T21:30:08.555Z,18.58
2018-06-30T21:32:37.885Z,18.56
2018-06-30T21:35:07.220Z,18.40
2018-06-30T21:37:36.535Z,18.43
2018-06-30T21:40:05.865Z,18.34
2018-06-30T21:42:35.201Z,18.47
2018-06-30T21:45:04.525Z,18.26
2018-06-30T21:47:33.845Z,18.11
2018-06-30T21:50:03.167Z,17.97
2018-06-30T21:52:32.489Z,18.04
2018-06-30T21:55:01.821Z,18.00
2018-06-30T21:57:31.136Z,18.14
2018-06-30T22:00:00.540Z,18.08
2018-06-30T22:02:29.853Z,17.88
2018-06-30T22:04:59.173Z,17.82
2018-06-30T22:07:28.492Z,17.92
2018-06-30T22:09:57.820Z,17.74
2018-06-30T22:12:27.134Z,17.61
2018-06-30T22:14:56.570Z,17.62
2018-06-30T22:17:25.639Z,17.73
2018-06-30T22:19:55.073Z,17.33
2018-06-30T22:22:24.381Z,17.46
2018-06-30T22:24:53.428Z,17.34
2018-06-30T22:27:22.744Z,17.44
2018-06-30T22:29:52.076Z,17.39
2018-06-30T22:32:21.396Z,17.30
2018-06-30T22:34:50.742Z,17.19
2018-06-30T22:37:20.053Z,17.00
2018-06-30T22:40:00.228Z,16.97
2018-06-30T22:42:29.556Z,16.84
2018-06-30T22:44:58.883Z,16.83
2018-06-30T22:47:28.204Z,16.77
2018-06-30T22:49:57.521Z,16.51
2018-06-30T22:52:26.848Z,16.56
2018-06-30T22:54:56.171Z,16.51
2018-06-30T22:57:25.486Z,16.43
2018-06-30T22:59:54.815Z,16.38
2018-06-30T23:02:23.891Z,16.30
2018-06-30T23:04:53.255Z,16.06
2018-06-30T23:07:22.572Z,16.22
2018-06-30T23:09:52.545Z,16.27
2018-06-30T23:12:21.852Z,16.21
2018-06-30T23:14:51.255Z,16.30
2018-06-30T23:17:20.598Z,16.47
2018-06-30T23:19:49.920Z,16.64
2018-06-30T23:23:28.323Z,17.24
2018-06-30T23:25:57.589Z,16.58
2018-06-30T23:28:26.924Z,16.71
2018-06-30T23:30:56.257Z,16.67
2018-06-30T23:33:25.594Z,16.75
2018-06-30T23:35:54.927Z,16.69
2018-06-30T23:38:24.238Z,16.42
2018-06-30T23:40:53.565Z,16.20
2018-06-30T23:43:22.879Z,15.57
2018-06-30T23:45:52.209Z,16.00
2018-06-30T23:48:21.537Z,15.97
2018-06-30T23:50:50.865Z,15.55
2018-06-30T23:53:20.183Z,15.74
2018-06-30T23:55:49.545Z,15.79
2018-06-30T23:58:18.848Z,15.54
